Pierre, SD

9:43 AM CDT on July 23, 2014 (GMT -0500)
Pierre Regional (KPIR) Elev 1742 ft | 44.38 °N, 100.29 °W | Change Station

Current weather conditions updated 50 minutes ago

Clear
Clear
72 °F
Feels Like 72 °F
N
16
Wind Variable Wind from ESE
Gusts 23 mph

Today is forecast to be Cooler than yesterday.

Today
High -- | Low -- °F
--% Chance of Precip.
Yesterday
High -- | Low -- °F
Precip. -- in
6:18 AM 9:15 PM
Waning Crescent, 10% visible
Pressure 30.22 in
Visibility 10.0 miles
Clouds Clear
Dew Point 60 °F
Humidity 66%
Rainfall 0.00 in
Snow Depth Not available.
UV 2 out of 12
Pollen 4.80 out of 12
Air Quality Not available.
Flu Activity Not available.
METAR KPIR 231353Z AUTO 12014G20KT 10SM CLR 22/16 A3025 RMK AO2 SLP231 T02220156

More Conditions Fewer Conditions

Pressure 30.22 in
Visibility 10.0 miles
Clouds Clear
Dew Point 60 °F
Humidity 66%
Rainfall 0.00 in
Snow Depth Not available.
UV 2 out of 12
Pollen 4.80 out of 12
Air Quality Not available.
Flu Activity Not available.
METAR KPIR 231353Z AUTO 12014G20KT 10SM CLR 22/16 A3025 RMK AO2 SLP231 T02220156

More Conditions Fewer Conditions

10-Day Weather Forecast

Almanac

Astronomy

Jul. 23, 2014 Rise Set
Actual Time 6:18 AM CDT 9:15 PM CDT
Civil Twilight 5:43 AM CDT 9:50 PM CDT
Nautical Twilight 4:59 AM CDT 10:33 PM CDT
Astronomical Twilight 4:07 AM CDT 11:25 PM CDT
Moon 3:39 AM CDT 6:45 PM CDT
Length of Visible Light 16h 06m
Length of Day
14h 57m
Tomorrow will be 2m 1s shorter.
Waning Crescent, 10% of the Moon is Illuminated
Today
Waning Crescent
Jul 26
New
Aug 3
First Quarter
Aug 10
Full
Aug 17
Last Quarter

Today's Extremes

State Highs State Lows

Community

WunderPhotos

Upload Photos

1,736,611 photos uploaded!

Nearby

Snow Depth

Station Depth Elevation
North Rapid Creek 0 in 6130 ft
Blind Park 1 in 6890 ft

Earthquake Activity

City Distance Mag. Time & Date
No recent earthquake activity has been reported nearby.
Minimum magnitude displayed is 2.5.

Coastal Water Temperatures

Place Temperature
No Stations Reporting

Nearby Weather Stations

Station Location Temp. Heat Index Dew Point Humidity Wind Precip. Elev Updated Type
2 miles north of airport, Pierre, SD 73.0 °F 74 °F 65 °F 75% ESE  at  15.0 mph 0.00 in / hr 1818 ft 9:42 AM CDT Rapid Fire
Near Jefferson School, Pierre, SD 73.6 °F 76 °F 60 °F 63% SE  at  3.2 mph - / hr 1588 ft 9:31 AM CDT Normal
East of Hospital; Pierre, SD, Pierre, SD 75.3 °F 77 °F 61 °F 61% SE  at  7.0 mph 0.00 in / hr 1430 ft 9:40 AM CDT Normal
HADS MISSOURI RIVER AT PIERRE SD, Fort Pierre, SD 71 °F - - - North  at  - 0.00 in / hr 1414 ft 7:15 AM MDT MADIS
HADS BAD RIVER NEAR FORT PIERRE SD, Fort Pierre, SD 73 °F 71 °F - - North  at  - 0.00 in / hr 1430 ft 7:30 AM MDT MADIS
RAWS FORT PIERRE SD, Vivian, SD 71 °F 75 °F 58 °F 63% SSE  at  23 mph 0.00 in / hr 2273 ft 8:59 AM CDT MADIS

Show More Stations Show Fewer Stations